sensor_id;sensor_type;location;lat;lon;timestamp;pressure;altitude;pressure_sealevel;temperature
24201;BMP280;2801;50.972;7.856;2022-12-18T00:01:37;98741.59;;;-11.31
24201;BMP280;2801;50.972;7.856;2022-12-18T00:04:16;98738.38;;;-11.33
24201;BMP280;2801;50.972;7.856;2022-12-18T00:06:46;98738.22;;;-11.32
24201;BMP280;2801;50.972;7.856;2022-12-18T00:09:16;98731.25;;;-11.31
24201;BMP280;2801;50.972;7.856;2022-12-18T00:11:44;98740.81;;;-11.32
24201;BMP280;2801;50.972;7.856;2022-12-18T00:14:13;98741.59;;;-11.31
24201;BMP280;2801;50.972;7.856;2022-12-18T00:16:44;98735.13;;;-11.35
24201;BMP280;2801;50.972;7.856;2022-12-18T00:19:13;98734.34;;;-11.28
24201;BMP280;2801;50.972;7.856;2022-12-18T00:21:42;98717.53;;;-11.24
24201;BMP280;2801;50.972;7.856;2022-12-18T00:24:10;98726.47;;;-11.18
24201;BMP280;2801;50.972;7.856;2022-12-18T00:26:39;98719.69;;;-11.19
24201;BMP280;2801;50.972;7.856;2022-12-18T00:29:12;98717.72;;;-11.17
24201;BMP280;2801;50.972;7.856;2022-12-18T00:31:44;98735.09;;;-11.10
24201;BMP280;2801;50.972;7.856;2022-12-18T00:34:12;98727.97;;;-11.08
24201;BMP280;2801;50.972;7.856;2022-12-18T00:36:40;98726.38;;;-11.01
24201;BMP280;2801;50.972;7.856;2022-12-18T00:39:10;98729.78;;;-11.00
24201;BMP280;2801;50.972;7.856;2022-12-18T00:41:38;98746.41;;;-11.03
24201;BMP280;2801;50.972;7.856;2022-12-18T00:44:25;98739.94;;;-11.07
24201;BMP280;2801;50.972;7.856;2022-12-18T00:46:52;98742.84;;;-11.10
24201;BMP280;2801;50.972;7.856;2022-12-18T00:49:20;98752.53;;;-11.12
24201;BMP280;2801;50.972;7.856;2022-12-18T00:51:47;98752.06;;;-11.15
24201;BMP280;2801;50.972;7.856;2022-12-18T00:54:16;98749.78;;;-11.18
24201;BMP280;2801;50.972;7.856;2022-12-18T00:56:43;98740.19;;;-11.26
24201;BMP280;2801;50.972;7.856;2022-12-18T00:59:17;98745.34;;;-11.26
24201;BMP280;2801;50.972;7.856;2022-12-18T01:01:45;98741.31;;;-11.28
24201;BMP280;2801;50.972;7.856;2022-12-18T01:04:13;98732.38;;;-11.34
24201;BMP280;2801;50.972;7.856;2022-12-18T01:06:40;98736.75;;;-11.34
24201;BMP280;2801;50.972;7.856;2022-12-18T01:09:08;98732.53;;;-11.35
24201;BMP280;2801;50.972;7.856;2022-12-18T01:11:35;98731.06;;;-11.38
24201;BMP280;2801;50.972;7.856;2022-12-18T01:14:03;98723.59;;;-11.41
24201;BMP280;2801;50.972;7.856;2022-12-18T01:16:32;98717.63;;;-11.41
24201;BMP280;2801;50.972;7.856;2022-12-18T01:19:00;98722.66;;;-11.40
24201;BMP280;2801;50.972;7.856;2022-12-18T01:21:32;98718.75;;;-11.44
24201;BMP280;2801;50.972;7.856;2022-12-18T01:23:59;98724.72;;;-11.43
24201;BMP280;2801;50.972;7.856;2022-12-18T01:26:29;98709.16;;;-11.51
24201;BMP280;2801;50.972;7.856;2022-12-18T01:28:57;98724.25;;;-11.47
24201;BMP280;2801;50.972;7.856;2022-12-18T01:31:31;98725.19;;;-11.48
24201;BMP280;2801;50.972;7.856;2022-12-18T01:34:05;98709.31;;;-11.53
24201;BMP280;2801;50.972;7.856;2022-12-18T01:36:36;98708.84;;;-11.56
24201;BMP280;2801;50.972;7.856;2022-12-18T01:39:13;98706.53;;;-11.59
24201;BMP280;2801;50.972;7.856;2022-12-18T01:41:42;98715.13;;;-11.59
24201;BMP280;2801;50.972;7.856;2022-12-18T01:50:00;98715.91;;;-11.58
24201;BMP280;2801;50.972;7.856;2022-12-18T01:52:30;98713.53;;;-11.52
24201;BMP280;2801;50.972;7.856;2022-12-18T01:55:00;98726.31;;;-11.50
24201;BMP280;2801;50.972;7.856;2022-12-18T01:57:28;98719.38;;;-11.50
24201;BMP280;2801;50.972;7.856;2022-12-18T02:00:06;98718.06;;;-11.54
24201;BMP280;2801;50.972;7.856;2022-12-18T02:02:33;98715.63;;;-11.55
24201;BMP280;2801;50.972;7.856;2022-12-18T02:05:02;98721.63;;;-11.55
24201;BMP280;2801;50.972;7.856;2022-12-18T02:10:30;98719.19;;;-11.56
24201;BMP280;2801;50.972;7.856;2022-12-18T02:16:43;98716.97;;;-11.43
24201;BMP280;2801;50.972;7.856;2022-12-18T02:25:07;98727.97;;;-11.49
24201;BMP280;2801;50.972;7.856;2022-12-18T02:27:44;98719.53;;;-11.51
24201;BMP280;2801;50.972;7.856;2022-12-18T02:30:14;98725.81;;;-11.54
24201;BMP280;2801;50.972;7.856;2022-12-18T02:32:48;98729.22;;;-11.53
24201;BMP280;2801;50.972;7.856;2022-12-18T02:35:23;98732.75;;;-11.54
24201;BMP280;2801;50.972;7.856;2022-12-18T02:37:55;98743.78;;;-11.52
24201;BMP280;2801;50.972;7.856;2022-12-18T02:40:26;98734.72;;;-11.56
24201;BMP280;2801;50.972;7.856;2022-12-18T02:42:54;98699.63;;;-11.84
24201;BMP280;2801;50.972;7.856;2022-12-18T02:45:21;98736.00;;;-11.60
24201;BMP280;2801;50.972;7.856;2022-12-18T02:47:49;98740.50;;;-11.62
24201;BMP280;2801;50.972;7.856;2022-12-18T02:50:35;98736.59;;;-11.66
24201;BMP280;2801;50.972;7.856;2022-12-18T02:53:28;98726.56;;;-11.69
24201;BMP280;2801;50.972;7.856;2022-12-18T02:56:12;98718.31;;;-11.73
24201;BMP280;2801;50.972;7.856;2022-12-18T02:59:21;98726.56;;;-11.69
24201;BMP280;2801;50.972;7.856;2022-12-18T03:02:29;98734.03;;;-11.66
24201;BMP280;2801;50.972;7.856;2022-12-18T03:05:47;98724.28;;;-11.72
24201;BMP280;2801;50.972;7.856;2022-12-18T03:08:42;98715.03;;;-11.75
24201;BMP280;2801;50.972;7.856;2022-12-18T03:11:13;98719.56;;;-11.77
24201;BMP280;2801;50.972;7.856;2022-12-18T03:13:54;98708.56;;;-11.79
24201;BMP280;2801;50.972;7.856;2022-12-18T03:16:28;98706.28;;;-11.82
24201;BMP280;2801;50.972;7.856;2022-12-18T03:19:12;98696.13;;;-11.83
24201;BMP280;2801;50.972;7.856;2022-12-18T03:21:52;98702.53;;;-11.87
24201;BMP280;2801;50.972;7.856;2022-12-18T03:24:21;98702.69;;;-11.89
24201;BMP280;2801;50.972;7.856;2022-12-18T03:26:54;98694.06;;;-11.97
24201;BMP280;2801;50.972;7.856;2022-12-18T03:29:38;98698.88;;;-12.02
24201;BMP280;2801;50.972;7.856;2022-12-18T03:32:31;98704.53;;;-12.07
24201;BMP280;2801;50.972;7.856;2022-12-18T03:35:04;98708.72;;;-12.06
24201;BMP280;2801;50.972;7.856;2022-12-18T03:37:32;98702.91;;;-12.08
24201;BMP280;2801;50.972;7.856;2022-12-18T03:39:59;98709.00;;;-12.09
24201;BMP280;2801;50.972;7.856;2022-12-18T03:42:43;98706.56;;;-12.10
24201;BMP280;2801;50.972;7.856;2022-12-18T03:45:32;98704.97;;;-12.11
24201;BMP280;2801;50.972;7.856;2022-12-18T03:48:16;98707.53;;;-12.11
24201;BMP280;2801;50.972;7.856;2022-12-18T03:50:57;98696.22;;;-12.10
24201;BMP280;2801;50.972;7.856;2022-12-18T03:53:59;98690.91;;;-12.09
24201;BMP280;2801;50.972;7.856;2022-12-18T03:56:33;98685.59;;;-12.07
24201;BMP280;2801;50.972;7.856;2022-12-18T03:59:04;98685.41;;;-11.88
24201;BMP280;2801;50.972;7.856;2022-12-18T04:01:45;98681.72;;;-11.44
24201;BMP280;2801;50.972;7.856;2022-12-18T04:04:15;98673.59;;;-10.92
24201;BMP280;2801;50.972;7.856;2022-12-18T04:06:45;98670.09;;;-10.43
24201;BMP280;2801;50.972;7.856;2022-12-18T04:09:14;98680.00;;;-10.06
24201;BMP280;2801;50.972;7.856;2022-12-18T04:11:42;98675.88;;;-9.85
24201;BMP280;2801;50.972;7.856;2022-12-18T04:14:12;98668.88;;;-9.76
24201;BMP280;2801;50.972;7.856;2022-12-18T04:16:44;98663.69;;;-9.76
24201;BMP280;2801;50.972;7.856;2022-12-18T04:19:10;98666.41;;;-9.70
24201;BMP280;2801;50.972;7.856;2022-12-18T04:21:37;98670.13;;;-9.64
24201;BMP280;2801;50.972;7.856;2022-12-18T04:24:04;98662.97;;;-9.62
24201;BMP280;2801;50.972;7.856;2022-12-18T04:26:31;98672.69;;;-9.56
24201;BMP280;2801;50.972;7.856;2022-12-18T04:28:58;98666.41;;;-9.31
24201;BMP280;2801;50.972;7.856;2022-12-18T04:31:25;98665.06;;;-8.89
24201;BMP280;2801;50.972;7.856;2022-12-18T04:33:53;98667.94;;;-8.53
24201;BMP280;2801;50.972;7.856;2022-12-18T04:36:20;98657.97;;;-8.27
24201;BMP280;2801;50.972;7.856;2022-12-18T04:38:47;98660.56;;;-8.13
24201;BMP280;2801;50.972;7.856;2022-12-18T04:41:14;98666.50;;;-8.04
24201;BMP280;2801;50.972;7.856;2022-12-18T04:43:41;98669.59;;;-8.01
24201;BMP280;2801;50.972;7.856;2022-12-18T04:46:10;98666.00;;;-8.00
24201;BMP280;2801;50.972;7.856;2022-12-18T04:48:38;98673.63;;;-7.83
24201;BMP280;2801;50.972;7.856;2022-12-18T04:51:06;98672.03;;;-7.70
24201;BMP280;2801;50.972;7.856;2022-12-18T04:53:33;98673.75;;;-7.62
24201;BMP280;2801;50.972;7.856;2022-12-18T04:56:12;98662.44;;;-7.55
24201;BMP280;2801;50.972;7.856;2022-12-18T04:58:43;98656.44;;;-7.55
24201;BMP280;2801;50.972;7.856;2022-12-18T05:01:14;98663.97;;;-7.46
24201;BMP280;2801;50.972;7.856;2022-12-18T05:03:46;98660.56;;;-7.46
24201;BMP280;2801;50.972;7.856;2022-12-18T05:06:15;98662.34;;;-7.47
24201;BMP280;2801;50.972;7.856;2022-12-18T05:08:42;98652.19;;;-7.56
24201;BMP280;2801;50.972;7.856;2022-12-18T05:11:13;98660.56;;;-7.46
24201;BMP280;2801;50.972;7.856;2022-12-18T05:13:44;98665.06;;;-7.40
24201;BMP280;2801;50.972;7.856;2022-12-18T05:16:13;98660.44;;;-7.38
24201;BMP280;2801;50.972;7.856;2022-12-18T05:18:42;98664.22;;;-7.41
24201;BMP280;2801;50.972;7.856;2022-12-18T05:21:12;98662.88;;;-7.37
24201;BMP280;2801;50.972;7.856;2022-12-18T05:23:40;98660.09;;;-7.35
24201;BMP280;2801;50.972;7.856;2022-12-18T05:26:17;98659.63;;;-7.24
24201;BMP280;2801;50.972;7.856;2022-12-18T05:28:45;98654.31;;;-7.16
24201;BMP280;2801;50.972;7.856;2022-12-18T05:31:13;98658.72;;;-7.17
24201;BMP280;2801;50.972;7.856;2022-12-18T05:33:42;98658.28;;;-7.20
24201;BMP280;2801;50.972;7.856;2022-12-18T05:36:12;98654.56;;;-7.11
24201;BMP280;2801;50.972;7.856;2022-12-18T05:38:41;98655.28;;;-7.03
24201;BMP280;2801;50.972;7.856;2022-12-18T05:41:09;98652.69;;;-7.03
24201;BMP280;2801;50.972;7.856;2022-12-18T05:43:40;98653.03;;;-6.91
24201;BMP280;2801;50.972;7.856;2022-12-18T05:46:16;98654.88;;;-6.85
24201;BMP280;2801;50.972;7.856;2022-12-18T05:48:44;98639.56;;;-6.74
24201;BMP280;2801;50.972;7.856;2022-12-18T05:51:16;98651.13;;;-6.62
24201;BMP280;2801;50.972;7.856;2022-12-18T05:53:44;98639.97;;;-6.56
24201;BMP280;2801;50.972;7.856;2022-12-18T05:56:18;98658.69;;;-6.46
24201;BMP280;2801;50.972;7.856;2022-12-18T05:58:47;98653.59;;;-6.33
24201;BMP280;2801;50.972;7.856;2022-12-18T06:01:17;98639.97;;;-6.28
24201;BMP280;2801;50.972;7.856;2022-12-18T06:03:44;98649.22;;;-6.26
24201;BMP280;2801;50.972;7.856;2022-12-18T06:06:14;98665.09;;;-6.27
24201;BMP280;2801;50.972;7.856;2022-12-18T06:08:41;98659.66;;;-6.26
24201;BMP280;2801;50.972;7.856;2022-12-18T06:11:15;98666.34;;;-6.23
24201;BMP280;2801;50.972;7.856;2022-12-18T06:13:42;98659.13;;;-6.21
24201;BMP280;2801;50.972;7.856;2022-12-18T06:16:09;98670.19;;;-6.19
24201;BMP280;2801;50.972;7.856;2022-12-18T06:18:39;98674.00;;;-6.22
24201;BMP280;2801;50.972;7.856;2022-12-18T06:21:06;98674.63;;;-6.13
24201;BMP280;2801;50.972;7.856;2022-12-18T06:23:33;98664.00;;;-6.12
24201;BMP280;2801;50.972;7.856;2022-12-18T06:26:10;98672.66;;;-6.11
24201;BMP280;2801;50.972;7.856;2022-12-18T06:28:38;98670.06;;;-6.11
24201;BMP280;2801;50.972;7.856;2022-12-18T06:31:06;98666.81;;;-6.13
24201;BMP280;2801;50.972;7.856;2022-12-18T06:33:34;98675.69;;;-6.08
24201;BMP280;2801;50.972;7.856;2022-12-18T06:36:09;98681.09;;;-6.09
24201;BMP280;2801;50.972;7.856;2022-12-18T06:38:39;98669.41;;;-6.13
24201;BMP280;2801;50.972;7.856;2022-12-18T06:41:09;98665.84;;;-6.12
24201;BMP280;2801;50.972;7.856;2022-12-18T06:43:36;98680.91;;;-6.08
24201;BMP280;2801;50.972;7.856;2022-12-18T06:46:05;98680.59;;;-5.98
24201;BMP280;2801;50.972;7.856;2022-12-18T06:48:33;98683.88;;;-5.90
24201;BMP280;2801;50.972;7.856;2022-12-18T06:51:01;98686.72;;;-5.85
24201;BMP280;2801;50.972;7.856;2022-12-18T06:53:28;98678.66;;;-5.90
24201;BMP280;2801;50.972;7.856;2022-12-18T06:56:06;98688.09;;;-5.89
24201;BMP280;2801;50.972;7.856;2022-12-18T06:58:38;98697.63;;;-5.81
24201;BMP280;2801;50.972;7.856;2022-12-18T07:01:08;98690.19;;;-5.71
24201;BMP280;2801;50.972;7.856;2022-12-18T07:03:40;98695.88;;;-5.68
24201;BMP280;2801;50.972;7.856;2022-12-18T07:06:15;98693.84;;;-5.66
24201;BMP280;2801;50.972;7.856;2022-12-18T07:08:44;98680.38;;;-5.69
24201;BMP280;2801;50.972;7.856;2022-12-18T07:11:13;98690.00;;;-5.70
24201;BMP280;2801;50.972;7.856;2022-12-18T07:13:41;98680.94;;;-5.74
24201;BMP280;2801;50.972;7.856;2022-12-18T07:16:19;98674.88;;;-5.81
24201;BMP280;2801;50.972;7.856;2022-12-18T07:18:52;98680.94;;;-5.74
24201;BMP280;2801;50.972;7.856;2022-12-18T07:21:21;98694.66;;;-5.65
24201;BMP280;2801;50.972;7.856;2022-12-18T07:23:48;98693.97;;;-5.53
24201;BMP280;2801;50.972;7.856;2022-12-18T07:26:19;98685.50;;;-5.55
24201;BMP280;2801;50.972;7.856;2022-12-18T07:28:47;98692.34;;;-5.54
24201;BMP280;2801;50.972;7.856;2022-12-18T07:31:20;98690.53;;;-5.53
24201;BMP280;2801;50.972;7.856;2022-12-18T07:33:48;98686.31;;;-5.54
24201;BMP280;2801;50.972;7.856;2022-12-18T07:36:15;98692.78;;;-5.44
24201;BMP280;2801;50.972;7.856;2022-12-18T07:38:43;98695.91;;;-5.27
24201;BMP280;2801;50.972;7.856;2022-12-18T07:41:13;98688.91;;;-5.20
24201;BMP280;2801;50.972;7.856;2022-12-18T07:43:41;98692.94;;;-5.18
24201;BMP280;2801;50.972;7.856;2022-12-18T07:46:11;98682.31;;;-5.10
24201;BMP280;2801;50.972;7.856;2022-12-18T07:48:41;98688.19;;;-5.01
24201;BMP280;2801;50.972;7.856;2022-12-18T07:51:12;98683.63;;;-4.93
24201;BMP280;2801;50.972;7.856;2022-12-18T07:53:39;98673.56;;;-4.83
24201;BMP280;2801;50.972;7.856;2022-12-18T07:56:11;98685.50;;;-4.74
24201;BMP280;2801;50.972;7.856;2022-12-18T07:58:58;98677.66;;;-4.67
24201;BMP280;2801;50.972;7.856;2022-12-18T08:01:26;98659.75;;;-4.70
24201;BMP280;2801;50.972;7.856;2022-12-18T08:03:54;98669.63;;;-4.59
24201;BMP280;2801;50.972;7.856;2022-12-18T08:06:22;98646.06;;;-4.72
24201;BMP280;2801;50.972;7.856;2022-12-18T08:08:54;98656.56;;;-4.53
24201;BMP280;2801;50.972;7.856;2022-12-18T08:11:25;98659.22;;;-4.40
24201;BMP280;2801;50.972;7.856;2022-12-18T08:13:53;98664.66;;;-4.35
24201;BMP280;2801;50.972;7.856;2022-12-18T08:16:22;98680.97;;;-4.20
24201;BMP280;2801;50.972;7.856;2022-12-18T08:18:53;98675.34;;;-4.17
24201;BMP280;2801;50.972;7.856;2022-12-18T08:21:27;98665.06;;;-4.12
24201;BMP280;2801;50.972;7.856;2022-12-18T08:23:57;98671.53;;;-3.95
24201;BMP280;2801;50.972;7.856;2022-12-18T08:26:27;98675.75;;;-3.87
24201;BMP280;2801;50.972;7.856;2022-12-18T08:28:56;98669.72;;;-3.81
24201;BMP280;2801;50.972;7.856;2022-12-18T08:31:24;98676.16;;;-3.70
24201;BMP280;2801;50.972;7.856;2022-12-18T08:33:53;98661.63;;;-3.60
24201;BMP280;2801;50.972;7.856;2022-12-18T08:36:22;98655.56;;;-3.54
24201;BMP280;2801;50.972;7.856;2022-12-18T08:38:51;98647.09;;;-3.49
24201;BMP280;2801;50.972;7.856;2022-12-18T08:41:19;98629.53;;;-3.49
24201;BMP280;2801;50.972;7.856;2022-12-18T08:43:47;98642.41;;;-3.34
24201;BMP280;2801;50.972;7.856;2022-12-18T08:46:37;98632.28;;;-3.24
24201;BMP280;2801;50.972;7.856;2022-12-18T08:49:07;98616.16;;;-3.28
24201;BMP280;2801;50.972;7.856;2022-12-18T08:51:34;98610.31;;;-3.23
24201;BMP280;2801;50.972;7.856;2022-12-18T08:54:01;98609.88;;;-3.14
24201;BMP280;2801;50.972;7.856;2022-12-18T08:56:30;98612.88;;;-3.10
24201;BMP280;2801;50.972;7.856;2022-12-18T08:58:57;98616.28;;;-3.03
24201;BMP280;2801;50.972;7.856;2022-12-18T09:01:24;98623.13;;;-2.96
24201;BMP280;2801;50.972;7.856;2022-12-18T09:03:52;98601.88;;;-2.94
24201;BMP280;2801;50.972;7.856;2022-12-18T09:06:22;98623.44;;;-2.86
24201;BMP280;2801;50.972;7.856;2022-12-18T09:08:50;98605.28;;;-2.87
24201;BMP280;2801;50.972;7.856;2022-12-18T09:11:26;98610.91;;;-2.77
24201;BMP280;2801;50.972;7.856;2022-12-18T09:13:55;98612.75;;;-2.53
24201;BMP280;2801;50.972;7.856;2022-12-18T09:16:24;98642.41;;;-2.46
24201;BMP280;2801;50.972;7.856;2022-12-18T09:18:59;98632.69;;;-2.39
24201;BMP280;2801;50.972;7.856;2022-12-18T09:21:30;98612.56;;;-2.27
24201;BMP280;2801;50.972;7.856;2022-12-18T09:23:58;98628.75;;;-1.99
24201;BMP280;2801;50.972;7.856;2022-12-18T09:26:26;98623.97;;;-1.66
24201;BMP280;2801;50.972;7.856;2022-12-18T09:28:53;98636.53;;;-1.26
24201;BMP280;2801;50.972;7.856;2022-12-18T09:31:23;98618.16;;;-0.96
24201;BMP280;2801;50.972;7.856;2022-12-18T09:33:51;98612.84;;;-0.78
24201;BMP280;2801;50.972;7.856;2022-12-18T09:36:18;98601.59;;;-0.85
24201;BMP280;2801;50.972;7.856;2022-12-18T09:38:45;98601.84;;;-1.05
24201;BMP280;2801;50.972;7.856;2022-12-18T09:41:50;98601.13;;;-1.12
24201;BMP280;2801;50.972;7.856;2022-12-18T09:44:41;98598.66;;;-1.25
24201;BMP280;2801;50.972;7.856;2022-12-18T09:47:28;98603.41;;;-1.33
24201;BMP280;2801;50.972;7.856;2022-12-18T09:50:05;98617.00;;;-1.36
24201;BMP280;2801;50.972;7.856;2022-12-18T09:52:45;98617.50;;;-1.46
24201;BMP280;2801;50.972;7.856;2022-12-18T09:55:30;98617.00;;;-1.54
24201;BMP280;2801;50.972;7.856;2022-12-18T09:58:32;98607.66;;;-1.50
24201;BMP280;2801;50.972;7.856;2022-12-18T10:01:02;98601.28;;;-1.43
24201;BMP280;2801;50.972;7.856;2022-12-18T10:03:33;98609.31;;;-1.38
24201;BMP280;2801;50.972;7.856;2022-12-18T10:06:36;98591.84;;;-1.32
24201;BMP280;2801;50.972;7.856;2022-12-18T10:09:38;98577.00;;;-1.27
24201;BMP280;2801;50.972;7.856;2022-12-18T10:12:17;98588.69;;;-1.23
24201;BMP280;2801;50.972;7.856;2022-12-18T10:20:49;98599.31;;;-1.11
24201;BMP280;2801;50.972;7.856;2022-12-18T10:23:32;98585.28;;;-1.05
24201;BMP280;2801;50.972;7.856;2022-12-18T10:26:13;98588.97;;;-0.95
24201;BMP280;2801;50.972;7.856;2022-12-18T10:28:41;98583.28;;;-0.92
24201;BMP280;2801;50.972;7.856;2022-12-18T10:31:19;98588.00;;;-0.82
24201;BMP280;2801;50.972;7.856;2022-12-18T10:33:51;98577.25;;;-0.81
24201;BMP280;2801;50.972;7.856;2022-12-18T10:36:21;98565.69;;;-0.80
24201;BMP280;2801;50.972;7.856;2022-12-18T10:38:49;98558.28;;;-0.71
24201;BMP280;2801;50.972;7.856;2022-12-18T10:46:38;98523.72;;;-0.63
24201;BMP280;2801;50.972;7.856;2022-12-18T10:49:18;98534.16;;;-0.57
24201;BMP280;2801;50.972;7.856;2022-12-18T10:51:46;98518.59;;;-0.47
24201;BMP280;2801;50.972;7.856;2022-12-18T10:54:19;98507.56;;;-0.44
24201;BMP280;2801;50.972;7.856;2022-12-18T10:56:48;98472.97;;;-0.59
24201;BMP280;2801;50.972;7.856;2022-12-18T10:59:18;98518.16;;;-0.32
24201;BMP280;2801;50.972;7.856;2022-12-18T11:01:57;98501.66;;;-0.28
24201;BMP280;2801;50.972;7.856;2022-12-18T11:04:28;98508.19;;;-0.19
24201;BMP280;2801;50.972;7.856;2022-12-18T11:07:04;98507.38;;;-0.19
24201;BMP280;2801;50.972;7.856;2022-12-18T11:09:34;98500.63;;;-0.15
24201;BMP280;2801;50.972;7.856;2022-12-18T11:12:17;98499.47;;;-0.08
24201;BMP280;2801;50.972;7.856;2022-12-18T11:14:47;98491.13;;;-0.05
24201;BMP280;2801;50.972;7.856;2022-12-18T11:20:07;98503.03;;;-0.02
24201;BMP280;2801;50.972;7.856;2022-12-18T11:22:59;98497.84;;;0.03
24201;BMP280;2801;50.972;7.856;2022-12-18T11:25:33;98491.00;;;0.14
24201;BMP280;2801;50.972;7.856;2022-12-18T11:28:06;98485.34;;;0.10
24201;BMP280;2801;50.972;7.856;2022-12-18T11:31:31;98491.00;;;0.02
24201;BMP280;2801;50.972;7.856;2022-12-18T11:34:21;98481.34;;;-0.04
24201;BMP280;2801;50.972;7.856;2022-12-18T11:36:58;98474.84;;;-0.02
24201;BMP280;2801;50.972;7.856;2022-12-18T11:39:57;98477.13;;;-0.05
24201;BMP280;2801;50.972;7.856;2022-12-18T11:42:44;98479.19;;;-0.07
24201;BMP280;2801;50.972;7.856;2022-12-18T11:47:55;98485.47;;;-0.08
24201;BMP280;2801;50.972;7.856;2022-12-18T11:50:54;98481.84;;;-0.07
24201;BMP280;2801;50.972;7.856;2022-12-18T11:53:30;98501.31;;;-0.08
24201;BMP280;2801;50.972;7.856;2022-12-18T11:59:19;98481.72;;;-0.12
24201;BMP280;2801;50.972;7.856;2022-12-18T12:07:54;98469.34;;;-0.12
24201;BMP280;2801;50.972;7.856;2022-12-18T12:11:15;98456.47;;;-0.08
24201;BMP280;2801;50.972;7.856;2022-12-18T12:17:42;98438.16;;;-0.03
24201;BMP280;2801;50.972;7.856;2022-12-18T12:20:27;98434.38;;;-0.07
24201;BMP280;2801;50.972;7.856;2022-12-18T12:23:18;98434.50;;;-0.14
24201;BMP280;2801;50.972;7.856;2022-12-18T12:26:12;98436.66;;;-0.11
24201;BMP280;2801;50.972;7.856;2022-12-18T12:40:03;98448.81;;;-0.33
24201;BMP280;2801;50.972;7.856;2022-12-18T12:43:02;98451.34;;;-0.38
24201;BMP280;2801;50.972;7.856;2022-12-18T12:46:08;98453.09;;;-0.32
24201;BMP280;2801;50.972;7.856;2022-12-18T12:48:46;98448.03;;;-0.45
24201;BMP280;2801;50.972;7.856;2022-12-18T12:53:48;98418.72;;;-0.71
24201;BMP280;2801;50.972;7.856;2022-12-18T12:56:19;98447.69;;;-0.60
24201;BMP280;2801;50.972;7.856;2022-12-18T12:59:15;98442.75;;;-0.68
24201;BMP280;2801;50.972;7.856;2022-12-18T13:08:21;98435.69;;;-1.08
24201;BMP280;2801;50.972;7.856;2022-12-18T13:10:50;98433.06;;;-1.08
24201;BMP280;2801;50.972;7.856;2022-12-18T13:13:54;98412.19;;;-1.33
24201;BMP280;2801;50.972;7.856;2022-12-18T13:16:25;98428.53;;;-1.31
24201;BMP280;2801;50.972;7.856;2022-12-18T13:18:58;98444.47;;;-1.26
24201;BMP280;2801;50.972;7.856;2022-12-18T13:21:31;98448.41;;;-1.35
24201;BMP280;2801;50.972;7.856;2022-12-18T13:24:25;98453.22;;;-1.43
24201;BMP280;2801;50.972;7.856;2022-12-18T13:26:53;98461.88;;;-1.43
24201;BMP280;2801;50.972;7.856;2022-12-18T13:29:56;98461.44;;;-1.40
24201;BMP280;2801;50.972;7.856;2022-12-18T13:32:25;98475.97;;;-1.37
24201;BMP280;2801;50.972;7.856;2022-12-18T13:37:54;98461.09;;;-1.43
24201;BMP280;2801;50.972;7.856;2022-12-18T13:46:17;98461.13;;;-1.61
24201;BMP280;2801;50.972;7.856;2022-12-18T13:49:05;98464.06;;;-1.69
24201;BMP280;2801;50.972;7.856;2022-12-18T13:51:52;98473.88;;;-1.65
24201;BMP280;2801;50.972;7.856;2022-12-18T13:54:39;98465.75;;;-1.93
24201;BMP280;2801;50.972;7.856;2022-12-18T13:57:33;98480.63;;;-1.87
24201;BMP280;2801;50.972;7.856;2022-12-18T14:00:34;98470.03;;;-1.98
24201;BMP280;2801;50.972;7.856;2022-12-18T14:03:19;98468.28;;;-2.04
24201;BMP280;2801;50.972;7.856;2022-12-18T14:05:56;98467.41;;;-2.16
24201;BMP280;2801;50.972;7.856;2022-12-18T14:08:36;98466.97;;;-2.13
24201;BMP280;2801;50.972;7.856;2022-12-18T14:11:06;98469.06;;;-2.22
24201;BMP280;2801;50.972;7.856;2022-12-18T14:13:41;98460.53;;;-2.35
24201;BMP280;2801;50.972;7.856;2022-12-18T14:16:15;98469.44;;;-2.36
24201;BMP280;2801;50.972;7.856;2022-12-18T14:18:58;98423.56;;;-2.58
24201;BMP280;2801;50.972;7.856;2022-12-18T14:21:47;98428.53;;;-2.50
24201;BMP280;2801;50.972;7.856;2022-12-18T14:24:21;98428.19;;;-2.54
24201;BMP280;2801;50.972;7.856;2022-12-18T14:26:50;98437.41;;;-2.69
24201;BMP280;2801;50.972;7.856;2022-12-18T14:29:29;98421.50;;;-2.74
24201;BMP280;2801;50.972;7.856;2022-12-18T14:34:51;98418.56;;;-2.84
24201;BMP280;2801;50.972;7.856;2022-12-18T14:37:24;98430.44;;;-2.82
24201;BMP280;2801;50.972;7.856;2022-12-18T14:39:59;98419.03;;;-2.94
24201;BMP280;2801;50.972;7.856;2022-12-18T14:42:37;98436.16;;;-2.91
24201;BMP280;2801;50.972;7.856;2022-12-18T14:45:52;98421.66;;;-2.94
24201;BMP280;2801;50.972;7.856;2022-12-18T14:48:39;98408.19;;;-2.97
24201;BMP280;2801;50.972;7.856;2022-12-18T14:53:42;98412.34;;;-2.90
24201;BMP280;2801;50.972;7.856;2022-12-18T14:56:24;98420.16;;;-2.83
24201;BMP280;2801;50.972;7.856;2022-12-18T14:58:59;98406.75;;;-2.93
24201;BMP280;2801;50.972;7.856;2022-12-18T15:01:35;98424.41;;;-2.82
24201;BMP280;2801;50.972;7.856;2022-12-18T15:04:24;98419.59;;;-2.85
24201;BMP280;2801;50.972;7.856;2022-12-18T15:07:15;98412.88;;;-2.81
24201;BMP280;2801;50.972;7.856;2022-12-18T15:26:07;98401.00;;;-3.08
24201;BMP280;2801;50.972;7.856;2022-12-18T15:28:52;98391.00;;;-3.18
24201;BMP280;2801;50.972;7.856;2022-12-18T15:31:34;98392.38;;;-3.15
24201;BMP280;2801;50.972;7.856;2022-12-18T15:34:12;98395.25;;;-3.23
24201;BMP280;2801;50.972;7.856;2022-12-18T15:36:40;98388.38;;;-3.24
24201;BMP280;2801;50.972;7.856;2022-12-18T15:39:12;98398.84;;;-3.18
24201;BMP280;2801;50.972;7.856;2022-12-18T15:41:40;98394.28;;;-3.29
24201;BMP280;2801;50.972;7.856;2022-12-18T15:44:27;98374.69;;;-3.51
24201;BMP280;2801;50.972;7.856;2022-12-18T15:47:00;98394.97;;;-3.40
24201;BMP280;2801;50.972;7.856;2022-12-18T15:49:27;98390.00;;;-3.48
24201;BMP280;2801;50.972;7.856;2022-12-18T15:51:59;98384.91;;;-3.43
24201;BMP280;2801;50.972;7.856;2022-12-18T15:54:29;98374.28;;;-3.54
24201;BMP280;2801;50.972;7.856;2022-12-18T15:57:14;98381.69;;;-3.45
24201;BMP280;2801;50.972;7.856;2022-12-18T15:59:53;98385.38;;;-3.52
24201;BMP280;2801;50.972;7.856;2022-12-18T16:02:21;98378.94;;;-3.56
24201;BMP280;2801;50.972;7.856;2022-12-18T16:04:52;98393.28;;;-3.59
24201;BMP280;2801;50.972;7.856;2022-12-18T16:07:19;98386.47;;;-3.66
24201;BMP280;2801;50.972;7.856;2022-12-18T16:09:51;98372.94;;;-3.63
24201;BMP280;2801;50.972;7.856;2022-12-18T16:12:21;98385.84;;;-3.62
24201;BMP280;2801;50.972;7.856;2022-12-18T16:14:50;98390.06;;;-3.61
24201;BMP280;2801;50.972;7.856;2022-12-18T16:17:17;98386.88;;;-3.69
24201;BMP280;2801;50.972;7.856;2022-12-18T16:19:44;98381.47;;;-3.74
24201;BMP280;2801;50.972;7.856;2022-12-18T16:22:22;98383.72;;;-3.78
24201;BMP280;2801;50.972;7.856;2022-12-18T16:24:51;98379.47;;;-3.79
24201;BMP280;2801;50.972;7.856;2022-12-18T16:27:19;98379.91;;;-3.82
24201;BMP280;2801;50.972;7.856;2022-12-18T16:29:46;98367.00;;;-3.83
24201;BMP280;2801;50.972;7.856;2022-12-18T16:32:17;98377.66;;;-3.78
24201;BMP280;2801;50.972;7.856;2022-12-18T16:34:45;98370.88;;;-3.86
24201;BMP280;2801;50.972;7.856;2022-12-18T16:37:14;98368.66;;;-3.89
24201;BMP280;2801;50.972;7.856;2022-12-18T16:39:42;98363.00;;;-3.86